Time;durP1;ratioP1;P1;durP2;ratioP2;P2;SDS_P1;SDS_P2;PMS_P1;PMS_P2;Temp;Humidity;BMP_temperature;BMP_pressure;BME280_temperature;BME280_humidity;BME280_pressure;Samples;Min_cycle;Max_cycle;Signal;HPM_P1;HPM_P2
2022/07/30 00:02:18;;;;;;;7.28;3.60;;;16.90;99.90;;;;;;5076812;28;20040;-55
2022/07/30 00:04:44;;;;;;;5.13;3.60;;;16.80;99.90;;;;;;5076753;28;20043;-56
2022/07/30 00:07:09;;;;;;;4.85;3.42;;;16.80;99.90;;;;;;5076941;28;20033;-56
2022/07/30 00:09:35;;;;;;;6.13;3.70;;;16.70;99.90;;;;;;5076300;28;20048;-56
2022/07/30 00:12:01;;;;;;;5.35;3.70;;;16.70;99.90;;;;;;5076344;28;20510;-55
2022/07/30 00:14:26;;;;;;;4.70;2.92;;;16.60;99.90;;;;;;5076421;28;20037;-56
2022/07/30 00:16:52;;;;;;;8.70;3.42;;;16.70;99.90;;;;;;5076490;28;20029;-57
2022/07/30 00:19:19;;;;;;;6.07;3.50;;;16.70;99.90;;;;;;5076472;28;20079;-56
2022/07/30 00:21:45;;;;;;;9.40;3.92;;;16.60;99.90;;;;;;5076540;28;20043;-57
2022/07/30 00:24:10;;;;;;;4.60;3.53;;;16.60;99.90;;;;;;5076108;28;20033;-57
2022/07/30 00:26:36;;;;;;;6.63;3.92;;;16.60;99.90;;;;;;5075836;28;20063;-56
2022/07/30 00:29:03;;;;;;;5.78;3.70;;;16.60;99.90;;;;;;5076028;28;20115;-57
2022/07/30 00:31:29;;;;;;;7.57;3.60;;;16.60;99.90;;;;;;5076294;28;20064;-57
2022/07/30 00:33:55;;;;;;;6.53;3.47;;;16.70;99.90;;;;;;5075900;28;20475;-58
2022/07/30 00:36:20;;;;;;;6.22;3.63;;;16.60;99.90;;;;;;5076409;28;20028;-57
2022/07/30 00:38:46;;;;;;;7.45;3.90;;;16.60;99.90;;;;;;5074691;28;20040;-56
2022/07/30 00:41:12;;;;;;;4.90;3.75;;;16.40;99.90;;;;;;5074491;28;20051;-57
2022/07/30 00:43:38;;;;;;;4.15;3.70;;;16.30;99.90;;;;;;5075970;28;20384;-58
2022/07/30 00:46:03;;;;;;;7.90;4.00;;;16.40;99.90;;;;;;5075442;28;20037;-57
2022/07/30 00:48:29;;;;;;;5.45;4.18;;;16.30;99.90;;;;;;5076084;28;20044;-56
2022/07/30 00:50:55;;;;;;;6.63;3.85;;;16.30;99.90;;;;;;5076025;28;20040;-56
2022/07/30 00:53:21;;;;;;;7.88;4.10;;;16.30;99.90;;;;;;5075417;28;20041;-55
2022/07/30 00:55:46;;;;;;;5.80;3.95;;;16.20;99.90;;;;;;5075727;28;20386;-56
2022/07/30 00:58:12;;;;;;;5.07;3.70;;;16.20;99.90;;;;;;5075653;28;20383;-56
2022/07/30 01:00:38;;;;;;;7.30;3.85;;;16.20;99.90;;;;;;5075747;28;20043;-56
2022/07/30 01:03:03;;;;;;;4.93;3.75;;;16.20;99.90;;;;;;5075728;28;20032;-56
2022/07/30 01:05:29;;;;;;;9.50;4.82;;;16.30;99.90;;;;;;5075676;28;20459;-56
2022/07/30 01:07:55;;;;;;;6.15;4.38;;;16.20;99.90;;;;;;5070886;28;20037;-56
2022/07/30 05:37:16;;;;;;;13.77;9.88;;;15.60;99.90;;;;;;5037854;28;20067;-55
2022/07/30 05:39:42;;;;;;;11.43;8.93;;;15.70;99.90;;;;;;5054674;28;20048;-56
2022/07/30 05:42:07;;;;;;;11.82;10.32;;;15.70;99.90;;;;;;5054569;28;20442;-58
2022/07/30 05:44:33;;;;;;;15.98;10.18;;;15.80;99.90;;;;;;5054526;28;20479;-57
2022/07/30 05:46:59;;;;;;;13.52;10.48;;;15.80;99.90;;;;;;5054470;28;20047;-57
2022/07/30 05:49:24;;;;;;;13.60;11.70;;;15.90;99.90;;;;;;5054517;28;20043;-57
2022/07/30 05:51:50;;;;;;;12.80;11.45;;;15.90;99.90;;;;;;5054266;28;20087;-57
2022/07/30 05:54:15;;;;;;;18.30;12.15;;;16.00;99.90;;;;;;5053247;28;20080;-56
2022/07/30 05:56:41;;;;;;;13.35;11.88;;;16.10;99.90;;;;;;5054389;28;20037;-57
2022/07/30 05:59:07;;;;;;;12.68;11.35;;;16.10;99.90;;;;;;5054186;28;20116;-57
2022/07/30 06:01:32;;;;;;;15.13;11.10;;;16.20;99.90;;;;;;5054233;28;20044;-57
2022/07/30 06:03:58;;;;;;;14.20;11.80;;;16.30;99.90;;;;;;5054217;28;20044;-56
2022/07/30 06:06:24;;;;;;;15.57;12.43;;;16.30;99.90;;;;;;5054008;28;20364;-57
2022/07/30 06:08:50;;;;;;;14.13;11.60;;;16.40;99.90;;;;;;5054071;28;20037;-57
2022/07/30 06:11:16;;;;;;;13.05;11.75;;;16.50;99.90;;;;;;5054126;28;20052;-57
2022/07/30 06:13:43;;;;;;;17.90;12.57;;;16.60;99.90;;;;;;5054003;28;20045;-57
2022/07/30 06:16:09;;;;;;;15.43;12.70;;;16.70;99.90;;;;;;5059677;28;20056;-57
2022/07/30 06:18:34;;;;;;;15.77;12.95;;;16.80;99.90;;;;;;5072421;28;20028;-56
2022/07/30 06:21:00;;;;;;;15.63;13.55;;;16.90;99.90;;;;;;5074035;28;20037;-57
2022/07/30 06:23:25;;;;;;;16.02;13.68;;;17.00;99.90;;;;;;5073838;28;20075;-57
2022/07/30 06:25:51;;;;;;;17.48;13.98;;;17.20;99.90;;;;;;5073918;28;20037;-56
2022/07/30 06:28:17;;;;;;;18.58;14.38;;;17.30;99.90;;;;;;5073668;28;20063;-57
2022/07/30 06:30:44;;;;;;;16.50;13.38;;;17.30;99.90;;;;;;5072683;28;20052;-56
2022/07/30 06:33:11;;;;;;;15.75;13.40;;;17.50;99.90;;;;;;5074409;28;20080;-57
2022/07/30 06:35:36;;;;;;;16.25;13.70;;;17.60;99.90;;;;;;5073853;28;20048;-56
2022/07/30 06:38:02;;;;;;;15.63;13.00;;;17.70;99.90;;;;;;5073488;28;20048;-56
2022/07/30 06:40:28;;;;;;;14.50;12.30;;;17.90;99.90;;;;;;5073701;28;20036;-56
2022/07/30 06:42:54;;;;;;;16.92;12.77;;;18.00;99.90;;;;;;5073712;28;20036;-57
2022/07/30 06:45:20;;;;;;;20.90;12.82;;;18.10;99.90;;;;;;5073502;28;20044;-57
2022/07/30 06:47:45;;;;;;;19.50;11.48;;;18.30;99.90;;;;;;5073714;28;20090;-57
2022/07/30 06:50:11;;;;;;;18.77;10.82;;;18.60;99.90;;;;;;5073700;28;20053;-57
2022/07/30 06:52:37;;;;;;;14.35;10.00;;;18.80;99.90;;;;;;5073642;28;20111;-57
2022/07/30 06:55:03;;;;;;;11.35;10.25;;;19.10;99.90;;;;;;5073695;28;20044;-56
2022/07/30 06:57:29;;;;;;;10.07;8.98;;;19.20;99.90;;;;;;5073442;28;20045;-56
2022/07/30 06:59:54;;;;;;;17.52;9.50;;;19.40;99.90;;;;;;5073980;28;20039;-56
2022/07/30 07:02:20;;;;;;;16.20;9.85;;;19.60;99.90;;;;;;5073565;28;20479;-56
2022/07/30 07:04:46;;;;;;;14.02;10.52;;;19.70;99.90;;;;;;5074498;28;20093;-55
2022/07/30 07:07:11;;;;;;;16.58;10.57;;;19.70;99.90;;;;;;5076150;28;20040;-56
2022/07/30 07:09:37;;;;;;;13.55;8.50;;;19.90;99.90;;;;;;5077378;28;20581;-56
2022/07/30 07:12:03;;;;;;;14.40;8.27;;;20.00;99.90;;;;;;5076427;28;20055;-56
2022/07/30 07:14:28;;;;;;;15.38;9.40;;;20.20;99.90;;;;;;5074592;28;20602;-56
2022/07/30 07:16:54;;;;;;;13.63;8.52;;;20.30;99.90;;;;;;5072144;28;20502;-57
2022/07/30 07:19:19;;;;;;;14.70;8.60;;;20.40;99.90;;;;;;5068242;28;20359;-57
2022/07/30 07:21:47;;;;;;;10.23;7.43;;;20.50;99.90;;;;;;5070884;28;20067;-57
2022/07/30 07:24:13;;;;;;;13.47;8.37;;;20.90;99.90;;;;;;5073077;28;20059;-57
2022/07/30 07:26:39;;;;;;;13.50;8.98;;;21.10;99.90;;;;;;5069454;28;20113;-56
2022/07/30 07:29:04;;;;;;;19.10;8.68;;;21.20;99.90;;;;;;5068253;28;20132;-56
2022/07/30 07:31:30;;;;;;;12.38;7.63;;;21.30;99.90;;;;;;5057284;28;20040;-56
2022/07/30 07:33:56;;;;;;;11.70;7.55;;;21.80;99.90;;;;;;5057086;28;20041;-57
2022/07/30 07:36:22;;;;;;;8.57;6.50;;;21.80;99.90;;;;;;5057826;28;20108;-57
2022/07/30 07:38:48;;;;;;;11.38;7.65;;;22.00;99.90;;;;;;5056540;28;20055;-57
2022/07/30 07:41:14;;;;;;;11.68;6.88;;;22.10;99.90;;;;;;5057330;28;20473;-57
2022/07/30 07:43:40;;;;;;;14.48;7.78;;;22.20;99.90;;;;;;5056983;28;20033;-57
2022/07/30 07:46:06;;;;;;;15.20;6.97;;;22.20;99.90;;;;;;5056954;28;20117;-57
2022/07/30 07:48:32;;;;;;;9.88;6.38;;;22.30;99.90;;;;;;5057109;28;20064;-56
2022/07/30 07:50:58;;;;;;;16.60;6.88;;;22.10;99.90;;;;;;5072515;28;20037;-57
2022/07/30 07:53:23;;;;;;;13.23;5.82;;;22.10;99.90;;;;;;5056723;28;20098;-56
2022/07/30 07:55:49;;;;;;;9.70;6.40;;;22.70;99.90;;;;;;5069885;28;20048;-56
2022/07/30 07:58:15;;;;;;;8.98;6.53;;;23.50;99.90;;;;;;5075157;28;20101;-56
2022/07/30 08:00:41;;;;;;;9.82;5.63;;;23.70;99.90;;;;;;5076521;28;20447;-56
2022/07/30 08:03:07;;;;;;;12.23;5.20;;;23.80;99.90;;;;;;5076429;28;20116;-57
2022/07/30 08:05:32;;;;;;;14.95;5.90;;;23.60;99.90;;;;;;5062739;28;20053;-56
2022/07/30 08:07:58;;;;;;;10.52;5.05;;;24.00;99.90;;;;;;5056472;28;20079;-56
2022/07/30 08:10:24;;;;;;;11.02;4.60;;;25.10;99.90;;;;;;5056563;28;20048;-56
2022/07/30 08:12:50;;;;;;;6.95;4.10;;;25.20;99.90;;;;;;5056375;28;20041;-56
2022/07/30 08:15:15;;;;;;;9.43;4.95;;;25.00;99.90;;;;;;5056452;28;20092;-56
2022/07/30 08:17:42;;;;;;;9.75;3.90;;;25.70;99.90;;;;;;5055373;28;20067;-56
2022/07/30 08:20:09;;;;;;;16.33;4.78;;;26.20;99.90;;;;;;5056332;28;20033;-58
2022/07/30 08:22:35;;;;;;;12.10;5.28;;;26.00;99.90;;;;;;5056130;28;20037;-56
2022/07/30 08:25:01;;;;;;;10.82;4.28;;;25.50;99.90;;;;;;5055322;28;20349;-55
2022/07/30 08:27:27;;;;;;;9.70;4.03;;;25.60;99.90;;;;;;5055834;28;20042;-56
2022/07/30 08:29:52;;;;;;;8.85;3.60;;;25.30;99.90;;;;;;5056256;28;20072;-55
2022/07/30 08:32:18;;;;;;;9.52;3.90;;;26.30;99.90;;;;;;5055943;28;20047;-55
2022/07/30 08:34:43;;;;;;;7.38;3.95;;;27.40;99.90;;;;;;5056250;28;20360;-56
2022/07/30 08:37:09;;;;;;;6.68;3.38;;;26.00;99.90;;;;;;5055945;28;20047;-56
2022/07/30 08:39:35;;;;;;;8.70;3.90;;;26.10;99.90;;;;;;5056163;28;20051;-56
2022/07/30 08:42:02;;;;;;;10.88;3.88;;;26.10;99.90;;;;;;5055914;28;20041;-56
2022/07/30 08:44:28;;;;;;;8.55;3.90;;;26.90;99.90;;;;;;5055905;28;20090;-56
2022/07/30 08:46:57;;;;;;;7.20;3.63;;;27.20;99.90;;;;;;5054883;28;20364;-56
2022/07/30 08:49:23;;;;;;;6.20;3.08;;;28.10;99.90;;;;;;5056084;28;20037;-56
2022/07/30 08:51:50;;;;;;;8.95;3.40;;;27.10;99.90;;;;;;5054564;28;20129;-56
2022/07/30 08:54:17;;;;;;;7.55;2.50;;;26.60;99.90;;;;;;5055441;28;20069;-56
2022/07/30 08:56:43;;;;;;;9.18;3.15;;;27.80;99.90;;;;;;5056369;28;20039;-57
2022/07/30 08:59:10;;;;;;;6.18;2.90;;;28.10;99.90;;;;;;5062075;28;20041;-55
2022/07/30 09:01:36;;;;;;;8.30;2.97;;;28.20;99.90;;;;;;5055752;28;20106;-56
2022/07/30 09:04:01;;;;;;;8.52;2.80;;;27.50;99.90;;;;;;5055805;28;20037;-56
2022/07/30 09:06:27;;;;;;;8.73;2.65;;;26.80;99.90;;;;;;5055316;28;20044;-56
2022/07/30 09:08:53;;;;;;;7.78;2.95;;;26.60;99.90;;;;;;5055846;28;20040;-57
2022/07/30 09:11:19;;;;;;;8.43;2.70;;;27.00;99.90;;;;;;5055106;28;20060;-54
2022/07/30 09:13:45;;;;;;;7.60;2.88;;;27.20;99.90;;;;;;5055277;28;20048;-57
2022/07/30 09:16:22;;;;;;;8.07;2.75;;;28.00;99.90;;;;;;5055526;28;20367;-54
2022/07/30 09:18:49;;;;;;;7.40;2.60;;;29.20;99.90;;;;;;5055528;28;20045;-55
2022/07/30 09:21:27;;;;;;;10.93;3.67;;;28.50;99.90;;;;;;5054602;28;20043;-56
2022/07/30 09:23:59;;;;;;;6.23;2.60;;;29.00;99.90;;;;;;5054889;28;20418;-55
2022/07/30 09:26:25;;;;;;;5.55;2.22;;;28.70;99.90;;;;;;5055301;28;20039;-56
2022/07/30 09:28:51;;;;;;;6.07;2.45;;;29.80;99.90;;;;;;5061325;28;20040;-58
2022/07/30 09:31:18;;;;;;;6.03;1.92;;;29.60;99.90;;;;;;5074714;28;20111;-56
2022/07/30 09:33:45;;;;;;;4.28;1.98;;;30.40;99.90;;;;;;5074681;28;20036;-56
2022/07/30 09:36:15;;;;;;;6.72;2.22;;;30.90;99.70;;;;;;5074555;28;20101;-56
2022/07/30 09:38:44;;;;;;;2.70;1.67;;;31.10;99.60;;;;;;5074334;28;20053;-57
2022/07/30 09:41:11;;;;;;;9.52;2.33;;;31.80;99.00;;;;;;5074472;28;20040;-56
2022/07/30 09:43:45;;;;;;;5.25;1.90;;;31.90;98.40;;;;;;5074831;28;20051;-56
2022/07/30 09:46:11;;;;;;;5.63;2.00;;;32.40;97.20;;;;;;5074516;28;20387;-56
2022/07/30 09:48:37;;;;;;;6.72;2.03;;;32.40;97.60;;;;;;5074640;28;20441;-57
2022/07/30 09:51:02;;;;;;;4.35;2.15;;;32.10;97.50;;;;;;5074504;28;20036;-58
2022/07/30 09:53:28;;;;;;;5.35;1.92;;;31.50;97.80;;;;;;5074408;28;20068;-56
2022/07/30 09:55:55;;;;;;;5.13;2.28;;;31.50;97.50;;;;;;5074433;28;20376;-56
2022/07/30 09:58:20;;;;;;;6.72;1.73;;;32.40;98.00;;;;;;5074286;28;20044;-56
2022/07/30 10:00:47;;;;;;;4.55;1.80;;;32.20;97.60;;;;;;5074263;28;20367;-56
2022/07/30 10:03:17;;;;;;;6.13;2.45;;;32.60;97.60;;;;;;5074257;28;20454;-56
2022/07/30 10:05:54;;;;;;;3.55;1.65;;;32.50;97.10;;;;;;5074285;28;20387;-57
2022/07/30 10:08:36;;;;;;;10.73;2.05;;;32.80;97.20;;;;;;5074213;28;20077;-57
2022/07/30 10:11:02;;;;;;;5.43;2.15;;;33.60;96.80;;;;;;5074202;28;20364;-57
2022/07/30 10:13:28;;;;;;;5.57;1.85;;;33.30;96.40;;;;;;5074064;28;20044;-56
2022/07/30 10:15:54;;;;;;;6.70;1.98;;;33.90;95.70;;;;;;5074007;28;20075;-57
2022/07/30 10:18:20;;;;;;;7.63;2.05;;;33.70;95.80;;;;;;5073968;28;20488;-57
2022/07/30 10:20:46;;;;;;;6.20;1.90;;;33.70;95.00;;;;;;5073901;28;20068;-57
2022/07/30 10:23:13;;;;;;;6.47;2.40;;;33.60;95.20;;;;;;5073960;28;20049;-57
2022/07/30 10:25:40;;;;;;;10.93;2.28;;;33.30;95.00;;;;;;5073993;28;20493;-57
2022/07/30 10:28:05;;;;;;;7.65;2.33;;;33.30;95.10;;;;;;5074394;28;20082;-57
2022/07/30 10:30:32;;;;;;;5.43;2.00;;;33.60;95.30;;;;;;5073748;28;20121;-56
2022/07/30 10:32:59;;;;;;;5.85;2.03;;;33.70;94.70;;;;;;5073368;28;20040;-56
2022/07/30 10:35:25;;;;;;;4.78;1.90;;;32.80;94.90;;;;;;5072702;28;20098;-56
2022/07/30 10:37:51;;;;;;;9.98;2.38;;;33.10;94.70;;;;;;5072856;28;20056;-58
2022/07/30 10:40:29;;;;;;;7.85;2.03;;;33.60;94.90;;;;;;5073047;28;20036;-57
2022/07/30 10:43:19;;;;;;;6.38;2.70;;;34.00;94.90;;;;;;5071899;28;20509;-57
2022/07/30 10:46:22;;;;;;;5.05;2.33;;;32.80;95.20;;;;;;5071565;28;20033;-56
2022/07/30 10:48:47;;;;;;;5.55;2.00;;;32.60;95.80;;;;;;5073975;28;20044;-57
2022/07/30 10:51:13;;;;;;;3.45;1.83;;;33.20;95.70;;;;;;5073775;28;20123;-56
2022/07/30 10:53:45;;;;;;;7.75;2.10;;;32.90;95.30;;;;;;5073750;28;20068;-56
2022/07/30 10:56:14;;;;;;;5.15;1.90;;;32.60;94.90;;;;;;5072061;28;20080;-56
2022/07/30 10:59:03;;;;;;;7.00;2.40;;;33.20;94.00;;;;;;5072564;28;20056;-57
2022/07/30 11:01:49;;;;;;;;;;;33.30;94.30;;;;;;5073665;28;20037;-55
2022/07/30 11:04:19;;;;;;;5.40;2.15;;;32.90;95.40;;;;;;5031541;28;19923;-57
2022/07/30 11:06:44;;;;;;;6.70;2.28;;;31.50;95.30;;;;;;5019636;28;20153;-57
2022/07/30 11:09:35;;;;;;;5.93;2.20;;;30.80;96.10;;;;;;5022839;28;20053;-57
2022/07/30 11:12:02;;;;;;;4.45;1.70;;;31.00;96.50;;;;;;4991198;28;20081;-57
2022/07/30 11:14:45;;;;;;;14.43;3.40;;;30.90;96.60;;;;;;4991283;28;20088;-56
2022/07/30 11:17:13;;;;;;;8.45;1.60;;;30.40;95.60;;;;;;4991398;28;20129;-57
2022/07/30 11:20:06;;;;;;;7.80;2.42;;;31.20;96.70;;;;;;4992181;28;20485;-57
2022/07/30 11:22:37;;;;;;;4.97;2.03;;;31.70;95.60;;;;;;4972631;28;20047;-58
2022/07/30 11:25:23;;;;;;;6.75;1.92;;;31.30;95.20;;;;;;4972843;28;20193;-57
2022/07/30 11:27:49;;;;;;;6.03;2.33;;;31.90;95.40;;;;;;4959810;28;20051;-57
2022/07/30 11:30:15;;;;;;;5.50;2.00;;;32.00;95.50;;;;;;4953379;29;20056;-58
2022/07/30 11:33:16;;;;;;;6.40;1.98;;;33.00;95.60;;;;;;4953699;29;20376;-58
2022/07/30 11:35:42;;;;;;;7.15;1.50;;;33.00;94.20;;;;;;4962650;28;20051;-58
2022/07/30 11:38:14;;;;;;;7.22;2.35;;;32.40;94.80;;;;;;4971964;28;20125;-58
2022/07/30 11:40:48;;;;;;;4.57;1.30;;;33.00;93.70;;;;;;4977146;28;20097;-57
2022/07/30 11:43:28;;;;;;;6.03;1.98;;;32.10;94.60;;;;;;4991818;28;20046;-58
2022/07/30 11:46:11;;;;;;;4.43;1.50;;;31.60;94.80;;;;;;4991955;28;20520;-58
2022/07/30 11:48:43;;;;;;;5.63;1.50;;;31.20;94.30;;;;;;4988678;28;20100;-58
2022/07/30 11:51:09;;;;;;;6.72;1.83;;;32.20;94.40;;;;;;5013041;28;20096;-56
2022/07/30 11:53:35;;;;;;;4.80;2.08;;;33.10;93.80;;;;;;5014640;28;20100;-57
2022/07/30 11:56:02;;;;;;;5.40;1.80;;;32.50;92.90;;;;;;5014909;28;20080;-57
2022/07/30 11:58:37;;;;;;;7.05;1.70;;;32.00;93.70;;;;;;5014866;28;20046;-57
2022/07/30 12:01:14;;;;;;;6.03;2.00;;;32.30;93.40;;;;;;5034826;28;20037;-58
2022/07/30 12:03:41;;;;;;;4.00;1.98;;;31.20;93.10;;;;;;5034191;28;20041;-57
2022/07/30 12:06:12;;;;;;;4.40;1.73;;;30.80;93.90;;;;;;5067545;28;20033;-57
2022/07/30 12:08:43;;;;;;;4.82;2.10;;;30.70;95.20;;;;;;5074774;28;20479;-57
2022/07/30 12:11:10;;;;;;;10.13;2.47;;;31.70;94.70;;;;;;5076291;28;20460;-57
2022/07/30 12:13:37;;;;;;;7.07;1.60;;;32.40;93.90;;;;;;5076312;28;20033;-57
2022/07/30 12:16:11;;;;;;;5.50;1.50;;;32.80;93.90;;;;;;5076422;28;20036;-56
2022/07/30 12:18:37;;;;;;;3.33;1.67;;;33.00;93.60;;;;;;5076246;28;20101;-56
2022/07/30 12:21:08;;;;;;;7.28;1.98;;;32.70;93.30;;;;;;5076460;28;20078;-57
2022/07/30 12:23:34;;;;;;;4.05;1.60;;;32.30;92.40;;;;;;5076515;28;20417;-55
2022/07/30 12:26:00;;;;;;;6.28;1.80;;;31.70;93.90;;;;;;5075942;28;20042;-57
2022/07/30 12:28:28;;;;;;;5.80;1.67;;;31.50;94.30;;;;;;5076086;28;20162;-57
2022/07/30 12:30:56;;;;;;;4.35;1.63;;;31.30;94.00;;;;;;5075842;28;20040;-57
2022/07/30 12:33:23;;;;;;;4.15;1.35;;;30.50;93.30;;;;;;5074920;28;20636;-57
2022/07/30 12:35:57;;;;;;;7.55;2.05;;;30.10;94.50;;;;;;5076002;28;20041;-57
2022/07/30 12:38:25;;;;;;;5.68;1.88;;;29.60;94.70;;;;;;5075463;28;20522;-57
2022/07/30 12:41:04;;;;;;;6.68;1.63;;;29.80;94.80;;;;;;5075914;28;20368;-57
2022/07/30 12:43:48;;;;;;;4.70;1.50;;;30.20;94.10;;;;;;5075700;28;20483;-57
2022/07/30 12:46:22;;;;;;;5.30;1.70;;;31.30;94.20;;;;;;5075621;28;20115;-56
2022/07/30 12:49:00;;;;;;;3.97;1.60;;;31.40;93.10;;;;;;5075697;28;20040;-57
2022/07/30 12:51:28;;;;;;;10.38;1.80;;;31.50;93.10;;;;;;5075642;28;20099;-56
2022/07/30 12:53:55;;;;;;;6.85;1.70;;;31.90;93.20;;;;;;5075595;28;20047;-56
2022/07/30 12:56:23;;;;;;;4.28;1.60;;;31.90;92.80;;;;;;5075673;28;20037;-56
2022/07/30 12:58:49;;;;;;;4.25;1.58;;;32.00;93.50;;;;;;5075549;28;20417;-57
2022/07/30 13:01:15;;;;;;;3.70;1.20;;;31.70;93.30;;;;;;5075448;28;20114;-57
2022/07/30 13:03:43;;;;;;;4.60;1.35;;;31.90;93.50;;;;;;5072348;28;20029;-62
2022/07/30 13:06:22;;;;;;;4.13;1.35;;;31.90;93.80;;;;;;5071827;28;20032;-63
2022/07/30 13:08:53;;;;;;;5.75;1.60;;;32.00;92.70;;;;;;5074922;28;20052;-63
2022/07/30 13:11:21;;;;;;;3.20;1.30;;;31.90;92.60;;;;;;5074972;28;20071;-63
2022/07/30 13:13:48;;;;;;;3.50;1.15;;;31.90;92.90;;;;;;5071822;28;20040;-63
2022/07/30 13:16:15;;;;;;;4.10;1.27;;;31.80;93.00;;;;;;5074873;28;20048;-62
2022/07/30 13:18:41;;;;;;;5.35;1.13;;;31.90;93.00;;;;;;5074662;28;20094;-62
2022/07/30 13:21:08;;;;;;;5.72;1.40;;;31.70;93.30;;;;;;5074728;28;20028;-62
2022/07/30 13:23:35;;;;;;;6.55;1.40;;;31.80;93.00;;;;;;5065630;28;20100;-62
2022/07/30 13:26:02;;;;;;;6.13;1.17;;;31.90;93.50;;;;;;5074246;28;20077;-62
2022/07/30 13:28:28;;;;;;;4.57;1.90;;;31.40;93.00;;;;;;5074243;28;20113;-62
2022/07/30 13:30:55;;;;;;;3.30;1.42;;;30.90;92.60;;;;;;5074306;28;20105;-57
2022/07/30 13:33:21;;;;;;;5.23;1.47;;;30.70;93.10;;;;;;5074182;28;20033;-58
2022/07/30 13:35:46;;;;;;;4.43;1.60;;;30.70;92.90;;;;;;5072093;28;20295;-58
2022/07/30 13:38:12;;;;;;;4.65;1.55;;;30.70;93.10;;;;;;5069304;28;20071;-57
2022/07/30 13:40:38;;;;;;;7.93;1.55;;;30.70;93.00;;;;;;5071813;28;20415;-57
2022/07/30 13:43:04;;;;;;;4.50;1.45;;;30.50;92.90;;;;;;5073939;28;20039;-57
2022/07/30 13:45:30;;;;;;;7.90;1.60;;;30.20;91.90;;;;;;5075072;28;20033;-58
2022/07/30 13:47:56;;;;;;;3.13;1.30;;;30.20;92.00;;;;;;5075039;28;20040;-57
2022/07/30 13:50:22;;;;;;;4.47;1.98;;;30.30;91.90;;;;;;5074596;28;20044;-57
2022/07/30 13:52:48;;;;;;;3.95;1.55;;;29.80;93.00;;;;;;5074554;28;20048;-56
2022/07/30 13:55:14;;;;;;;4.25;1.42;;;29.70;93.30;;;;;;5074560;28;20367;-57
2022/07/30 13:57:39;;;;;;;3.17;1.40;;;29.70;93.70;;;;;;5074590;28;20071;-57
2022/07/30 14:00:07;;;;;;;2.83;1.20;;;29.60;93.90;;;;;;5090367;28;20076;-58
2022/07/30 14:02:33;;;;;;;8.43;1.83;;;29.60;92.80;;;;;;5074396;28;20048;-58
2022/07/30 14:04:59;;;;;;;3.45;1.27;;;29.50;92.70;;;;;;5074099;28;20044;-57
2022/07/30 14:07:25;;;;;;;3.38;1.50;;;29.40;93.10;;;;;;5074405;28;20033;-56
2022/07/30 14:09:51;;;;;;;3.85;1.33;;;29.40;93.00;;;;;;5074230;28;20045;-57
2022/07/30 14:12:16;;;;;;;2.88;1.23;;;29.60;92.80;;;;;;5074385;28;20051;-57
2022/07/30 14:14:42;;;;;;;2.35;1.02;;;29.40;93.60;;;;;;5073534;28;20036;-58
2022/07/30 14:17:07;;;;;;;4.55;1.50;;;29.00;93.60;;;;;;5074092;28;20032;-57
2022/07/30 14:19:33;;;;;;;4.60;1.30;;;28.90;93.30;;;;;;5073993;28;20040;-57
2022/07/30 14:21:59;;;;;;;2.63;1.13;;;28.50;93.30;;;;;;5074223;28;20456;-58
2022/07/30 14:24:25;;;;;;;2.50;1.00;;;28.10;93.40;;;;;;5069188;28;20029;-58
2022/07/30 14:26:50;;;;;;;2.65;1.25;;;27.90;93.80;;;;;;5072824;28;20044;-58
2022/07/30 14:29:16;;;;;;;5.18;1.30;;;28.20;93.90;;;;;;5072944;28;20474;-57
2022/07/30 14:31:42;;;;;;;3.92;1.20;;;28.30;93.10;;;;;;5074003;28;20572;-56
2022/07/30 14:34:09;;;;;;;5.70;1.55;;;28.20;94.40;;;;;;5054639;28;20135;-57
2022/07/30 14:36:36;;;;;;;2.72;1.15;;;28.00;95.10;;;;;;5063144;28;20044;-57
2022/07/30 14:39:03;;;;;;;3.23;1.47;;;27.80;95.30;;;;;;5073385;28;20475;-58
2022/07/30 14:41:29;;;;;;;6.20;1.67;;;27.70;95.50;;;;;;5066282;28;20045;-57
2022/07/30 14:43:55;;;;;;;2.92;1.52;;;27.30;95.80;;;;;;5068635;28;20126;-64
2022/07/30 14:46:21;;;;;;;2.13;1.00;;;27.00;95.30;;;;;;5065467;28;20040;-63
2022/07/30 14:48:48;;;;;;;3.67;1.20;;;27.00;96.40;;;;;;5070151;28;20036;-64
2022/07/30 14:51:13;;;;;;;5.18;1.60;;;26.70;95.60;;;;;;5070429;28;20358;-64
2022/07/30 14:53:39;;;;;;;2.45;1.10;;;26.60;95.20;;;;;;5072989;28;20041;-65
2022/07/30 14:56:05;;;;;;;2.33;0.98;;;26.50;96.20;;;;;;5070995;28;20036;-64
2022/07/30 14:58:31;;;;;;;2.88;1.10;;;26.40;95.40;;;;;;5072977;28;20079;-64
2022/07/30 15:00:56;;;;;;;4.55;1.40;;;26.00;96.00;;;;;;5069230;28;20093;-64
2022/07/30 15:03:22;;;;;;;2.85;1.27;;;26.00;96.30;;;;;;5069276;28;20471;-64
2022/07/30 15:05:48;;;;;;;2.30;1.17;;;25.80;96.20;;;;;;5071330;28;20135;-64
2022/07/30 15:08:13;;;;;;;2.15;0.85;;;25.70;96.10;;;;;;5072623;28;20043;-57
2022/07/30 15:10:39;;;;;;;3.42;1.10;;;25.70;96.50;;;;;;5070093;28;20386;-58
2022/07/30 15:13:05;;;;;;;4.75;1.02;;;25.60;96.60;;;;;;5070729;28;20036;-58
2022/07/30 15:15:32;;;;;;;5.50;1.13;;;25.50;96.60;;;;;;5069469;28;20390;-57
2022/07/30 15:17:57;;;;;;;1.35;1.00;;;25.40;96.20;;;;;;5072793;28;20047;-57
2022/07/30 15:20:23;;;;;;;2.83;1.40;;;25.30;96.50;;;;;;5070736;28;20033;-57
2022/07/30 15:22:49;;;;;;;2.17;0.88;;;25.40;96.70;;;;;;5065123;28;20033;-59
2022/07/30 15:25:15;;;;;;;1.30;1.10;;;25.50;96.40;;;;;;5072536;28;20037;-57
2022/07/30 15:27:41;;;;;;;1.85;0.90;;;25.50;96.30;;;;;;5077078;28;20039;-58
2022/07/30 15:30:07;;;;;;;2.67;1.10;;;25.40;96.90;;;;;;5077553;28;20040;-57
2022/07/30 15:32:32;;;;;;;1.58;1.10;;;25.20;97.20;;;;;;5076066;28;20044;-58
2022/07/30 15:34:58;;;;;;;6.50;1.17;;;25.20;97.60;;;;;;5074946;28;20097;-57
2022/07/30 15:37:24;;;;;;;1.55;0.80;;;25.20;97.60;;;;;;5077104;28;20139;-57
2022/07/30 15:39:50;;;;;;;4.47;0.98;;;25.20;96.80;;;;;;5077511;28;20049;-57
2022/07/30 15:42:16;;;;;;;4.03;1.20;;;25.10;97.50;;;;;;5077407;28;20040;-57
2022/07/30 15:44:41;;;;;;;2.45;0.70;;;25.10;97.70;;;;;;5077365;28;20040;-57
2022/07/30 15:47:07;;;;;;;4.75;1.00;;;25.10;97.80;;;;;;5074746;28;20032;-57
2022/07/30 15:49:32;;;;;;;2.88;0.95;;;25.00;96.70;;;;;;5070034;28;20047;-64
2022/07/30 15:51:59;;;;;;;2.72;0.90;;;25.00;96.20;;;;;;5062335;28;20028;-64
2022/07/30 15:54:25;;;;;;;4.07;1.17;;;24.90;95.60;;;;;;5074776;28;20066;-64
2022/07/30 15:56:52;;;;;;;1.15;0.70;;;25.00;96.30;;;;;;5076604;28;20059;-64
2022/07/30 15:59:19;;;;;;;1.40;0.77;;;25.00;96.40;;;;;;5076007;28;20040;-64
2022/07/30 16:01:45;;;;;;;2.17;1.00;;;25.10;96.00;;;;;;5075854;28;20521;-63
2022/07/30 16:04:11;;;;;;;2.38;1.00;;;25.20;95.90;;;;;;5076755;28;20063;-63
2022/07/30 16:06:37;;;;;;;1.08;0.88;;;25.40;95.00;;;;;;5076570;28;20050;-64
2022/07/30 16:09:03;;;;;;;1.88;0.90;;;25.00;94.30;;;;;;5076626;28;20525;-63
2022/07/30 16:11:29;;;;;;;1.77;0.70;;;24.90;95.00;;;;;;5070287;28;20403;-63
2022/07/30 16:13:55;;;;;;;2.10;0.88;;;24.90;95.60;;;;;;5061219;28;20473;-64
2022/07/30 16:16:21;;;;;;;2.25;0.88;;;24.90;95.10;;;;;;5076178;28;20119;-63
2022/07/30 16:18:46;;;;;;;1.98;0.75;;;24.90;95.50;;;;;;5075399;28;20080;-63
2022/07/30 16:21:12;;;;;;;5.95;0.98;;;24.80;95.90;;;;;;5074934;28;20037;-64
2022/07/30 16:23:38;;;;;;;2.10;1.05;;;24.70;95.30;;;;;;5074382;28;20037;-64
2022/07/30 16:26:04;;;;;;;2.58;0.80;;;24.50;95.90;;;;;;5075716;28;20062;-64
2022/07/30 16:28:31;;;;;;;2.47;1.20;;;24.40;96.40;;;;;;5075768;28;20075;-64
2022/07/30 16:30:57;;;;;;;3.30;0.80;;;24.20;96.40;;;;;;5076138;28;20470;-64
2022/07/30 16:33:25;;;;;;;2.97;0.90;;;24.10;96.90;;;;;;5071639;28;20087;-68
2022/07/30 16:35:51;;;;;;;1.75;1.23;;;23.90;96.90;;;;;;5056065;28;20476;-68
2022/07/30 16:38:18;;;;;;;2.13;1.25;;;23.90;97.50;;;;;;5054658;28;20106;-68
2022/07/30 16:40:44;;;;;;;9.07;1.70;;;23.80;97.60;;;;;;5057746;28;20059;-67
2022/07/30 16:43:10;;;;;;;5.97;1.38;;;23.70;97.60;;;;;;5075350;28;20051;-68
2022/07/30 16:45:35;;;;;;;4.38;1.65;;;23.70;97.80;;;;;;5074693;28;20188;-68
2022/07/30 16:48:01;;;;;;;1.20;1.00;;;23.60;97.90;;;;;;5075527;28;20399;-68
2022/07/30 16:50:27;;;;;;;2.38;1.08;;;23.50;97.20;;;;;;5075778;28;20043;-67
2022/07/30 16:52:53;;;;;;;2.95;1.15;;;23.40;97.70;;;;;;5075930;28;20098;-68
2022/07/30 16:55:18;;;;;;;2.92;1.50;;;23.40;97.60;;;;;;5075314;28;20036;-67
2022/07/30 16:57:44;;;;;;;1.98;1.10;;;23.40;98.00;;;;;;5075565;28;20433;-67
2022/07/30 17:00:11;;;;;;;2.15;1.20;;;23.20;98.10;;;;;;5075520;28;20028;-67
2022/07/30 17:02:38;;;;;;;3.20;1.10;;;23.30;98.80;;;;;;5075526;28;20071;-67
2022/07/30 17:05:03;;;;;;;2.45;1.20;;;23.20;99.10;;;;;;5075489;28;20043;-67
2022/07/30 17:07:29;;;;;;;3.13;1.05;;;23.20;99.30;;;;;;5075421;28;20425;-67
2022/07/30 17:09:55;;;;;;;5.70;1.45;;;23.10;99.40;;;;;;5075363;28;20441;-67
2022/07/30 17:12:21;;;;;;;2.58;1.40;;;23.00;99.50;;;;;;5075248;28;20044;-67